createdAt,value
2019-03-31T00:00:03.600Z,6.20
2019-03-31T00:10:02.451Z,6.05
2019-03-31T00:20:02.330Z,5.96
2019-03-31T00:30:03.430Z,5.94
2019-03-31T00:40:02.375Z,5.78
2019-03-31T00:50:02.785Z,5.58
2019-03-31T01:00:02.901Z,5.42
2019-03-31T01:10:02.794Z,5.32
2019-03-31T01:20:02.494Z,5.40
2019-03-31T01:30:02.918Z,5.29
2019-03-31T01:40:03.026Z,5.12
2019-03-31T01:50:02.598Z,5.04
2019-03-31T02:00:02.755Z,4.93
2019-03-31T02:10:02.425Z,4.82
2019-03-31T02:20:03.226Z,4.81
2019-03-31T02:30:02.966Z,4.77
2019-03-31T02:40:02.964Z,4.67
2019-03-31T02:50:02.949Z,4.71
2019-03-31T03:00:03.574Z,4.79
2019-03-31T03:10:02.868Z,4.52
2019-03-31T03:20:07.600Z,4.43
2019-03-31T03:30:03.245Z,4.33
2019-03-31T03:40:02.580Z,4.19
2019-03-31T03:50:02.984Z,3.96
2019-03-31T04:00:03.390Z,3.64
2019-03-31T04:10:02.999Z,3.44
2019-03-31T04:20:02.911Z,3.59
2019-03-31T04:30:02.692Z,3.70
2019-03-31T04:40:02.809Z,3.68
2019-03-31T04:50:02.276Z,3.49
2019-03-31T05:00:03.038Z,3.22
2019-03-31T05:10:02.913Z,3.37
2019-03-31T05:20:02.930Z,3.90
2019-03-31T05:30:03.152Z,4.66
2019-03-31T05:40:02.909Z,5.31
2019-03-31T05:50:02.289Z,5.90
2019-03-31T06:00:03.430Z,6.50
2019-03-31T06:10:02.963Z,6.64
2019-03-31T06:20:02.814Z,7.23
2019-03-31T06:30:02.805Z,7.95
2019-03-31T06:40:02.863Z,8.74
2019-03-31T06:50:02.280Z,9.24
2019-03-31T07:00:03.798Z,9.82
2019-03-31T07:10:02.990Z,10.70
2019-03-31T07:20:03.147Z,11.74
2019-03-31T07:30:03.414Z,13.09
2019-03-31T07:40:02.373Z,14.13
2019-03-31T07:50:02.706Z,14.54
2019-03-31T08:00:03.554Z,14.91
2019-03-31T08:10:02.343Z,16.46
2019-03-31T08:20:02.241Z,16.65
2019-03-31T08:30:03.303Z,17.22
2019-03-31T08:40:02.084Z,17.61
2019-03-31T08:50:02.804Z,17.53
2019-03-31T09:00:03.647Z,17.43
2019-03-31T09:10:03.010Z,18.23
2019-03-31T09:20:03.085Z,17.51
2019-03-31T09:30:03.232Z,17.72
2019-03-31T09:40:02.946Z,17.96
2019-03-31T09:50:02.679Z,17.95
2019-03-31T10:00:03.073Z,18.29
2019-03-31T10:10:02.641Z,18.99
2019-03-31T10:20:02.605Z,18.36
2019-03-31T10:30:02.675Z,18.29
2019-03-31T10:40:03.014Z,18.00
2019-03-31T10:50:02.327Z,18.67
2019-03-31T11:00:03.643Z,18.24
2019-03-31T11:10:02.977Z,19.48
2019-03-31T11:20:02.695Z,18.94
2019-03-31T11:30:02.908Z,19.80
2019-03-31T11:40:02.847Z,20.44
2019-03-31T11:50:02.151Z,20.98
2019-03-31T12:00:03.337Z,18.78
2019-03-31T12:10:03.500Z,19.47
2019-03-31T12:20:02.248Z,19.92
2019-03-31T12:30:03.291Z,19.79
2019-03-31T12:40:02.374Z,19.63
2019-03-31T12:50:02.771Z,20.75
2019-03-31T13:00:02.907Z,19.18
2019-03-31T13:10:02.755Z,19.65
2019-03-31T13:20:02.693Z,18.62
2019-03-31T13:30:02.873Z,18.47
2019-03-31T13:40:02.475Z,19.37
2019-03-31T13:50:02.943Z,18.92
2019-03-31T14:00:03.268Z,18.45
2019-03-31T14:10:02.940Z,18.39
2019-03-31T14:20:02.901Z,19.57
2019-03-31T14:30:03.217Z,18.77
2019-03-31T14:40:02.499Z,18.06
2019-03-31T14:50:03.061Z,18.52
2019-03-31T15:00:14.346Z,18.71
2019-03-31T15:10:02.918Z,19.34
2019-03-31T15:20:03.146Z,17.74
2019-03-31T15:30:03.517Z,18.43
2019-03-31T15:40:02.246Z,17.88
2019-03-31T15:50:02.640Z,17.84
2019-03-31T16:00:02.958Z,17.74
2019-03-31T16:10:02.523Z,17.19
2019-03-31T16:20:02.332Z,17.34
2019-03-31T16:30:03.335Z,17.12
2019-03-31T16:40:02.377Z,16.91
2019-03-31T16:50:02.324Z,16.62
2019-03-31T17:00:03.685Z,16.25
2019-03-31T17:10:02.195Z,15.98
2019-03-31T17:20:02.926Z,15.63
2019-03-31T17:30:03.074Z,15.19
2019-03-31T17:40:06.179Z,14.85
2019-03-31T17:50:02.451Z,14.63
2019-03-31T18:00:03.625Z,14.33
2019-03-31T18:10:02.279Z,14.06
2019-03-31T18:20:03.022Z,13.93
2019-03-31T18:30:04.282Z,13.73
2019-03-31T18:40:02.800Z,13.57
2019-03-31T18:50:02.307Z,13.26
2019-03-31T19:00:03.586Z,12.99
2019-03-31T19:10:02.350Z,12.62
2019-03-31T19:20:02.957Z,12.45
2019-03-31T19:30:03.113Z,12.70
2019-03-31T19:40:02.850Z,13.00
2019-03-31T19:50:02.301Z,13.15
2019-03-31T20:00:02.799Z,12.94
2019-03-31T20:10:02.975Z,12.48
2019-03-31T20:20:02.688Z,12.16
2019-03-31T20:30:03.549Z,11.84
2019-03-31T20:40:03.078Z,11.63
2019-03-31T20:50:03.037Z,10.90
2019-03-31T21:00:03.367Z,9.61
2019-03-31T21:10:02.386Z,8.80
2019-03-31T21:20:02.768Z,8.79
2019-03-31T21:30:02.995Z,8.76
2019-03-31T21:40:02.797Z,8.33
2019-03-31T21:50:02.580Z,8.19
2019-03-31T22:00:02.938Z,8.21
2019-03-31T22:10:02.829Z,7.89
2019-03-31T22:20:02.583Z,8.13
2019-03-31T22:30:03.182Z,7.92
2019-03-31T22:40:03.285Z,7.88
2019-03-31T22:50:02.918Z,7.56
2019-03-31T23:00:02.799Z,7.48
2019-03-31T23:10:02.788Z,7.56
2019-03-31T23:20:02.550Z,7.46
2019-03-31T23:30:03.213Z,7.42
2019-03-31T23:40:02.677Z,8.12
2019-03-31T23:50:02.351Z,8.06
